sensor_id;sensor_type;location;lat;lon;timestamp;P1;durP1;ratioP1;P2;durP2;ratioP2
15831;SDS011;8016;49.928;9.372;2022-11-20T00:01:06;32.87;;;21.33;;
15831;SDS011;8016;49.928;9.372;2022-11-20T00:03:32;29.77;;;20.23;;
15831;SDS011;8016;49.928;9.372;2022-11-20T00:06:01;32.50;;;22.80;;
15831;SDS011;8016;49.928;9.372;2022-11-20T00:08:27;33.30;;;22.20;;
15831;SDS011;8016;49.928;9.372;2022-11-20T00:10:53;34.03;;;23.20;;
15831;SDS011;8016;49.928;9.372;2022-11-20T00:13:19;30.13;;;21.73;;
15831;SDS011;8016;49.928;9.372;2022-11-20T00:15:45;30.13;;;21.83;;
15831;SDS011;8016;49.928;9.372;2022-11-20T00:18:11;32.40;;;21.53;;
15831;SDS011;8016;49.928;9.372;2022-11-20T00:20:37;30.37;;;20.23;;
15831;SDS011;8016;49.928;9.372;2022-11-20T00:23:03;30.87;;;21.57;;
15831;SDS011;8016;49.928;9.372;2022-11-20T00:25:30;32.33;;;22.30;;
15831;SDS011;8016;49.928;9.372;2022-11-20T00:27:56;31.90;;;21.33;;
15831;SDS011;8016;49.928;9.372;2022-11-20T00:30:22;31.63;;;21.63;;
15831;SDS011;8016;49.928;9.372;2022-11-20T00:32:48;29.97;;;21.13;;
15831;SDS011;8016;49.928;9.372;2022-11-20T00:35:14;29.80;;;22.07;;
15831;SDS011;8016;49.928;9.372;2022-11-20T00:37:40;32.33;;;22.23;;
15831;SDS011;8016;49.928;9.372;2022-11-20T00:40:06;33.73;;;22.00;;
15831;SDS011;8016;49.928;9.372;2022-11-20T00:42:32;29.90;;;21.87;;
15831;SDS011;8016;49.928;9.372;2022-11-20T00:44:58;30.50;;;21.20;;
15831;SDS011;8016;49.928;9.372;2022-11-20T00:47:24;30.90;;;21.27;;
15831;SDS011;8016;49.928;9.372;2022-11-20T00:49:50;32.87;;;21.60;;
15831;SDS011;8016;49.928;9.372;2022-11-20T00:52:16;30.70;;;21.37;;
15831;SDS011;8016;49.928;9.372;2022-11-20T00:54:42;31.23;;;20.53;;
15831;SDS011;8016;49.928;9.372;2022-11-20T00:57:08;31.30;;;21.33;;
15831;SDS011;8016;49.928;9.372;2022-11-20T00:59:34;29.33;;;21.07;;
15831;SDS011;8016;49.928;9.372;2022-11-20T01:02:00;28.30;;;20.60;;
15831;SDS011;8016;49.928;9.372;2022-11-20T01:04:26;33.50;;;23.63;;
15831;SDS011;8016;49.928;9.372;2022-11-20T01:06:52;31.27;;;22.20;;
15831;SDS011;8016;49.928;9.372;2022-11-20T01:09:18;32.17;;;20.20;;
15831;SDS011;8016;49.928;9.372;2022-11-20T01:11:44;29.07;;;20.37;;
15831;SDS011;8016;49.928;9.372;2022-11-20T01:14:12;28.77;;;20.33;;
15831;SDS011;8016;49.928;9.372;2022-11-20T01:16:39;31.27;;;21.63;;
15831;SDS011;8016;49.928;9.372;2022-11-20T01:19:06;31.30;;;21.10;;
15831;SDS011;8016;49.928;9.372;2022-11-20T01:21:34;30.73;;;20.70;;
15831;SDS011;8016;49.928;9.372;2022-11-20T01:24:00;31.17;;;21.30;;
15831;SDS011;8016;49.928;9.372;2022-11-20T01:26:30;36.63;;;23.07;;
15831;SDS011;8016;49.928;9.372;2022-11-20T01:28:57;32.23;;;20.73;;
15831;SDS011;8016;49.928;9.372;2022-11-20T01:31:24;31.23;;;21.27;;
15831;SDS011;8016;49.928;9.372;2022-11-20T01:33:51;29.33;;;21.60;;
15831;SDS011;8016;49.928;9.372;2022-11-20T01:36:18;33.00;;;21.63;;
15831;SDS011;8016;49.928;9.372;2022-11-20T01:38:44;34.40;;;21.73;;
15831;SDS011;8016;49.928;9.372;2022-11-20T01:41:10;27.63;;;20.07;;
15831;SDS011;8016;49.928;9.372;2022-11-20T01:43:56;29.00;;;19.93;;
15831;SDS011;8016;49.928;9.372;2022-11-20T01:46:22;25.90;;;20.87;;
15831;SDS011;8016;49.928;9.372;2022-11-20T01:48:54;29.90;;;21.37;;
15831;SDS011;8016;49.928;9.372;2022-11-20T01:51:24;31.65;;;26.80;;
15831;SDS011;8016;49.928;9.372;2022-11-20T01:53:52;29.13;;;22.53;;
15831;SDS011;8016;49.928;9.372;2022-11-20T01:56:19;29.13;;;20.73;;
15831;SDS011;8016;49.928;9.372;2022-11-20T01:58:48;27.57;;;20.00;;
15831;SDS011;8016;49.928;9.372;2022-11-20T02:01:15;31.33;;;22.03;;
15831;SDS011;8016;49.928;9.372;2022-11-20T02:03:41;30.30;;;21.43;;
15831;SDS011;8016;49.928;9.372;2022-11-20T02:06:12;32.97;;;22.00;;
15831;SDS011;8016;49.928;9.372;2022-11-20T02:08:40;29.37;;;20.30;;
15831;SDS011;8016;49.928;9.372;2022-11-20T02:11:06;40.43;;;26.60;;
15831;SDS011;8016;49.928;9.372;2022-11-20T02:13:33;31.77;;;22.63;;
15831;SDS011;8016;49.928;9.372;2022-11-20T02:16:12;30.87;;;21.83;;
15831;SDS011;8016;49.928;9.372;2022-11-20T02:18:43;44.60;;;31.07;;
15831;SDS011;8016;49.928;9.372;2022-11-20T02:23:39;29.27;;;20.83;;
15831;SDS011;8016;49.928;9.372;2022-11-20T02:26:10;30.70;;;22.43;;
15831;SDS011;8016;49.928;9.372;2022-11-20T02:28:37;29.70;;;20.13;;
15831;SDS011;8016;49.928;9.372;2022-11-20T02:31:03;29.50;;;20.50;;
15831;SDS011;8016;49.928;9.372;2022-11-20T02:33:29;27.50;;;20.60;;
15831;SDS011;8016;49.928;9.372;2022-11-20T02:35:55;30.50;;;20.47;;
15831;SDS011;8016;49.928;9.372;2022-11-20T02:38:21;30.93;;;21.07;;
15831;SDS011;8016;49.928;9.372;2022-11-20T02:40:47;30.20;;;20.67;;
15831;SDS011;8016;49.928;9.372;2022-11-20T02:43:15;27.90;;;20.53;;
15831;SDS011;8016;49.928;9.372;2022-11-20T02:45:41;27.20;;;19.83;;
15831;SDS011;8016;49.928;9.372;2022-11-20T02:48:07;29.80;;;21.10;;
15831;SDS011;8016;49.928;9.372;2022-11-20T02:50:35;28.60;;;20.70;;
15831;SDS011;8016;49.928;9.372;2022-11-20T02:53:01;29.80;;;20.20;;
15831;SDS011;8016;49.928;9.372;2022-11-20T02:55:27;27.73;;;20.67;;
15831;SDS011;8016;49.928;9.372;2022-11-20T02:57:53;33.50;;;22.43;;
15831;SDS011;8016;49.928;9.372;2022-11-20T03:00:19;28.63;;;20.13;;
15831;SDS011;8016;49.928;9.372;2022-11-20T03:02:45;28.37;;;19.90;;
15831;SDS011;8016;49.928;9.372;2022-11-20T03:05:11;28.03;;;19.87;;
15831;SDS011;8016;49.928;9.372;2022-11-20T03:07:37;30.97;;;20.93;;
15831;SDS011;8016;49.928;9.372;2022-11-20T03:10:04;30.27;;;20.87;;
15831;SDS011;8016;49.928;9.372;2022-11-20T03:12:30;31.73;;;21.73;;
15831;SDS011;8016;49.928;9.372;2022-11-20T03:14:56;32.30;;;22.30;;
15831;SDS011;8016;49.928;9.372;2022-11-20T03:17:22;32.33;;;21.10;;
15831;SDS011;8016;49.928;9.372;2022-11-20T03:19:47;63.23;;;38.43;;
15831;SDS011;8016;49.928;9.372;2022-11-20T03:22:13;46.83;;;29.90;;
15831;SDS011;8016;49.928;9.372;2022-11-20T03:24:39;30.77;;;21.97;;
15831;SDS011;8016;49.928;9.372;2022-11-20T03:27:05;29.23;;;20.77;;
15831;SDS011;8016;49.928;9.372;2022-11-20T03:29:31;27.47;;;19.73;;
15831;SDS011;8016;49.928;9.372;2022-11-20T03:31:57;28.23;;;19.97;;
15831;SDS011;8016;49.928;9.372;2022-11-20T03:34:23;28.53;;;20.50;;
15831;SDS011;8016;49.928;9.372;2022-11-20T03:36:49;29.33;;;20.20;;
15831;SDS011;8016;49.928;9.372;2022-11-20T03:39:15;29.20;;;19.87;;
15831;SDS011;8016;49.928;9.372;2022-11-20T03:41:41;29.13;;;20.83;;
15831;SDS011;8016;49.928;9.372;2022-11-20T03:44:09;27.53;;;19.57;;
15831;SDS011;8016;49.928;9.372;2022-11-20T03:46:35;31.20;;;21.37;;
15831;SDS011;8016;49.928;9.372;2022-11-20T03:49:01;27.97;;;19.00;;
15831;SDS011;8016;49.928;9.372;2022-11-20T03:51:31;26.67;;;18.60;;
15831;SDS011;8016;49.928;9.372;2022-11-20T03:53:58;27.33;;;18.93;;
15831;SDS011;8016;49.928;9.372;2022-11-20T03:56:28;29.40;;;19.13;;
15831;SDS011;8016;49.928;9.372;2022-11-20T03:58:54;23.40;;;17.80;;
15831;SDS011;8016;49.928;9.372;2022-11-20T04:01:24;27.20;;;19.07;;
15831;SDS011;8016;49.928;9.372;2022-11-20T04:03:51;26.50;;;18.53;;
15831;SDS011;8016;49.928;9.372;2022-11-20T04:06:18;26.00;;;18.63;;
15831;SDS011;8016;49.928;9.372;2022-11-20T04:08:44;27.43;;;19.37;;
15831;SDS011;8016;49.928;9.372;2022-11-20T04:11:11;32.37;;;22.67;;
15831;SDS011;8016;49.928;9.372;2022-11-20T04:13:37;30.53;;;21.30;;
15831;SDS011;8016;49.928;9.372;2022-11-20T04:16:04;39.67;;;26.17;;
15831;SDS011;8016;49.928;9.372;2022-11-20T04:18:30;46.03;;;29.50;;
15831;SDS011;8016;49.928;9.372;2022-11-20T04:20:56;41.57;;;27.50;;
15831;SDS011;8016;49.928;9.372;2022-11-20T04:23:22;29.07;;;19.20;;
15831;SDS011;8016;49.928;9.372;2022-11-20T04:25:48;27.40;;;18.57;;
15831;SDS011;8016;49.928;9.372;2022-11-20T04:28:14;26.37;;;18.43;;
15831;SDS011;8016;49.928;9.372;2022-11-20T04:30:40;23.60;;;17.50;;
15831;SDS011;8016;49.928;9.372;2022-11-20T04:33:06;26.07;;;18.40;;
15831;SDS011;8016;49.928;9.372;2022-11-20T04:35:36;27.00;;;17.80;;
15831;SDS011;8016;49.928;9.372;2022-11-20T04:38:02;23.90;;;17.70;;
15831;SDS011;8016;49.928;9.372;2022-11-20T04:40:28;24.40;;;17.50;;
15831;SDS011;8016;49.928;9.372;2022-11-20T04:42:55;25.80;;;18.40;;
15831;SDS011;8016;49.928;9.372;2022-11-20T04:45:21;24.23;;;17.57;;
15831;SDS011;8016;49.928;9.372;2022-11-20T04:47:48;26.13;;;17.13;;
15831;SDS011;8016;49.928;9.372;2022-11-20T04:50:14;27.57;;;19.87;;
15831;SDS011;8016;49.928;9.372;2022-11-20T04:52:40;29.53;;;19.47;;
15831;SDS011;8016;49.928;9.372;2022-11-20T04:55:06;26.43;;;18.77;;
15831;SDS011;8016;49.928;9.372;2022-11-20T04:57:32;25.70;;;18.37;;
15831;SDS011;8016;49.928;9.372;2022-11-20T04:59:58;25.20;;;18.07;;
15831;SDS011;8016;49.928;9.372;2022-11-20T05:02:24;25.03;;;17.13;;
15831;SDS011;8016;49.928;9.372;2022-11-20T05:04:50;24.80;;;17.37;;
15831;SDS011;8016;49.928;9.372;2022-11-20T05:07:16;23.00;;;16.77;;
15831;SDS011;8016;49.928;9.372;2022-11-20T05:09:42;25.93;;;18.67;;
15831;SDS011;8016;49.928;9.372;2022-11-20T05:12:08;27.23;;;17.80;;
15831;SDS011;8016;49.928;9.372;2022-11-20T05:14:34;25.17;;;18.33;;
15831;SDS011;8016;49.928;9.372;2022-11-20T05:17:00;24.23;;;18.00;;
15831;SDS011;8016;49.928;9.372;2022-11-20T05:19:26;24.53;;;17.90;;
15831;SDS011;8016;49.928;9.372;2022-11-20T05:21:52;24.50;;;17.93;;
15831;SDS011;8016;49.928;9.372;2022-11-20T05:24:18;27.13;;;18.20;;
15831;SDS011;8016;49.928;9.372;2022-11-20T05:26:44;25.40;;;17.73;;
15831;SDS011;8016;49.928;9.372;2022-11-20T05:29:11;24.53;;;17.67;;
15831;SDS011;8016;49.928;9.372;2022-11-20T05:31:38;24.23;;;17.60;;
15831;SDS011;8016;49.928;9.372;2022-11-20T05:34:04;25.57;;;17.93;;
15831;SDS011;8016;49.928;9.372;2022-11-20T05:36:32;24.53;;;17.57;;
15831;SDS011;8016;49.928;9.372;2022-11-20T05:39:01;25.83;;;18.40;;
15831;SDS011;8016;49.928;9.372;2022-11-20T05:41:27;26.07;;;18.17;;
15831;SDS011;8016;49.928;9.372;2022-11-20T05:43:55;24.53;;;17.70;;
15831;SDS011;8016;49.928;9.372;2022-11-20T05:46:21;29.83;;;19.40;;
15831;SDS011;8016;49.928;9.372;2022-11-20T05:48:47;24.33;;;17.67;;
15831;SDS011;8016;49.928;9.372;2022-11-20T05:51:15;25.93;;;17.57;;
15831;SDS011;8016;49.928;9.372;2022-11-20T05:53:41;26.07;;;17.13;;
15831;SDS011;8016;49.928;9.372;2022-11-20T05:56:09;26.47;;;16.93;;
15831;SDS011;8016;49.928;9.372;2022-11-20T05:58:35;25.67;;;17.67;;
15831;SDS011;8016;49.928;9.372;2022-11-20T06:03:37;25.43;;;16.43;;
15831;SDS011;8016;49.928;9.372;2022-11-20T06:06:03;25.60;;;17.90;;
15831;SDS011;8016;49.928;9.372;2022-11-20T06:08:29;23.87;;;16.97;;
15831;SDS011;8016;49.928;9.372;2022-11-20T06:10:55;28.37;;;18.40;;
15831;SDS011;8016;49.928;9.372;2022-11-20T06:13:22;25.73;;;18.17;;
15831;SDS011;8016;49.928;9.372;2022-11-20T06:15:49;33.97;;;20.67;;
15831;SDS011;8016;49.928;9.372;2022-11-20T06:18:15;28.03;;;19.03;;
15831;SDS011;8016;49.928;9.372;2022-11-20T06:20:41;28.47;;;18.60;;
15831;SDS011;8016;49.928;9.372;2022-11-20T06:23:07;27.80;;;18.43;;
15831;SDS011;8016;49.928;9.372;2022-11-20T06:25:33;25.10;;;17.33;;
15831;SDS011;8016;49.928;9.372;2022-11-20T06:27:58;32.33;;;18.90;;
15831;SDS011;8016;49.928;9.372;2022-11-20T06:30:24;28.80;;;18.00;;
15831;SDS011;8016;49.928;9.372;2022-11-20T06:32:50;29.93;;;17.63;;
15831;SDS011;8016;49.928;9.372;2022-11-20T06:35:16;27.33;;;17.50;;
15831;SDS011;8016;49.928;9.372;2022-11-20T06:37:42;30.40;;;19.57;;
15831;SDS011;8016;49.928;9.372;2022-11-20T06:40:08;29.73;;;19.40;;
15831;SDS011;8016;49.928;9.372;2022-11-20T06:42:35;33.00;;;17.67;;
15831;SDS011;8016;49.928;9.372;2022-11-20T06:45:01;37.50;;;19.60;;
15831;SDS011;8016;49.928;9.372;2022-11-20T06:47:27;30.47;;;19.53;;
15831;SDS011;8016;49.928;9.372;2022-11-20T06:49:53;31.90;;;17.47;;
15831;SDS011;8016;49.928;9.372;2022-11-20T06:52:19;35.10;;;19.03;;
15831;SDS011;8016;49.928;9.372;2022-11-20T06:54:45;40.17;;;18.97;;
15831;SDS011;8016;49.928;9.372;2022-11-20T06:57:10;35.73;;;17.00;;
15831;SDS011;8016;49.928;9.372;2022-11-20T06:59:36;40.23;;;18.90;;
15831;SDS011;8016;49.928;9.372;2022-11-20T07:02:02;37.53;;;19.00;;
15831;SDS011;8016;49.928;9.372;2022-11-20T07:04:28;30.87;;;19.73;;
15831;SDS011;8016;49.928;9.372;2022-11-20T07:06:54;75.53;;;40.90;;
15831;SDS011;8016;49.928;9.372;2022-11-20T07:09:20;35.37;;;20.57;;
15831;SDS011;8016;49.928;9.372;2022-11-20T07:11:46;33.33;;;18.33;;
15831;SDS011;8016;49.928;9.372;2022-11-20T07:14:12;47.13;;;19.10;;
15831;SDS011;8016;49.928;9.372;2022-11-20T07:16:39;37.83;;;21.53;;
15831;SDS011;8016;49.928;9.372;2022-11-20T07:19:05;52.60;;;25.00;;
15831;SDS011;8016;49.928;9.372;2022-11-20T07:21:31;44.77;;;19.60;;
15831;SDS011;8016;49.928;9.372;2022-11-20T07:23:57;35.07;;;17.80;;
15831;SDS011;8016;49.928;9.372;2022-11-20T07:26:23;38.10;;;18.23;;
15831;SDS011;8016;49.928;9.372;2022-11-20T07:28:49;34.67;;;17.60;;
15831;SDS011;8016;49.928;9.372;2022-11-20T07:31:15;42.77;;;18.80;;
15831;SDS011;8016;49.928;9.372;2022-11-20T07:33:41;42.43;;;18.43;;
15831;SDS011;8016;49.928;9.372;2022-11-20T07:36:07;36.37;;;18.07;;
15831;SDS011;8016;49.928;9.372;2022-11-20T07:38:33;40.47;;;18.17;;
15831;SDS011;8016;49.928;9.372;2022-11-20T07:40:59;35.23;;;17.73;;
15831;SDS011;8016;49.928;9.372;2022-11-20T07:43:28;40.23;;;27.70;;
15831;SDS011;8016;49.928;9.372;2022-11-20T07:45:57;34.23;;;23.07;;
15831;SDS011;8016;49.928;9.372;2022-11-20T07:48:24;27.67;;;17.13;;
15831;SDS011;8016;49.928;9.372;2022-11-20T07:50:52;29.83;;;19.33;;
15831;SDS011;8016;49.928;9.372;2022-11-20T07:53:18;26.07;;;17.97;;
15831;SDS011;8016;49.928;9.372;2022-11-20T07:55:47;45.33;;;33.70;;
15831;SDS011;8016;49.928;9.372;2022-11-20T07:58:13;65.87;;;47.77;;
15831;SDS011;8016;49.928;9.372;2022-11-20T08:00:39;81.20;;;56.47;;
15831;SDS011;8016;49.928;9.372;2022-11-20T08:03:05;34.53;;;24.57;;
15831;SDS011;8016;49.928;9.372;2022-11-20T08:05:31;30.57;;;23.70;;
15831;SDS011;8016;49.928;9.372;2022-11-20T08:07:57;21.70;;;13.57;;
15831;SDS011;8016;49.928;9.372;2022-11-20T08:10:23;20.63;;;15.23;;
15831;SDS011;8016;49.928;9.372;2022-11-20T08:12:50;25.10;;;17.20;;
15831;SDS011;8016;49.928;9.372;2022-11-20T08:15:35;33.57;;;24.27;;
15831;SDS011;8016;49.928;9.372;2022-11-20T08:18:03;48.97;;;34.23;;
15831;SDS011;8016;49.928;9.372;2022-11-20T08:20:29;21.80;;;15.20;;
15831;SDS011;8016;49.928;9.372;2022-11-20T08:22:59;30.07;;;21.57;;
15831;SDS011;8016;49.928;9.372;2022-11-20T08:25:26;40.47;;;31.40;;
15831;SDS011;8016;49.928;9.372;2022-11-20T08:27:51;21.60;;;14.90;;
15831;SDS011;8016;49.928;9.372;2022-11-20T08:30:18;18.57;;;13.43;;
15831;SDS011;8016;49.928;9.372;2022-11-20T08:32:43;19.50;;;15.53;;
15831;SDS011;8016;49.928;9.372;2022-11-20T08:35:09;17.67;;;13.23;;
15831;SDS011;8016;49.928;9.372;2022-11-20T08:37:35;19.43;;;15.00;;
15831;SDS011;8016;49.928;9.372;2022-11-20T08:40:06;17.27;;;13.10;;
15831;SDS011;8016;49.928;9.372;2022-11-20T08:42:32;18.77;;;13.77;;
15831;SDS011;8016;49.928;9.372;2022-11-20T08:44:58;19.00;;;13.87;;
15831;SDS011;8016;49.928;9.372;2022-11-20T08:47:24;21.07;;;15.13;;
15831;SDS011;8016;49.928;9.372;2022-11-20T08:49:50;147.00;;;81.67;;
15831;SDS011;8016;49.928;9.372;2022-11-20T08:52:16;172.40;;;88.87;;
15831;SDS011;8016;49.928;9.372;2022-11-20T08:54:42;155.27;;;74.40;;
15831;SDS011;8016;49.928;9.372;2022-11-20T08:57:08;32.87;;;24.90;;
15831;SDS011;8016;49.928;9.372;2022-11-20T08:59:33;27.33;;;21.00;;
15831;SDS011;8016;49.928;9.372;2022-11-20T09:01:59;25.43;;;19.37;;
15831;SDS011;8016;49.928;9.372;2022-11-20T09:04:25;29.80;;;21.73;;
15831;SDS011;8016;49.928;9.372;2022-11-20T09:06:51;20.27;;;16.30;;
15831;SDS011;8016;49.928;9.372;2022-11-20T09:09:17;21.97;;;16.73;;
15831;SDS011;8016;49.928;9.372;2022-11-20T09:11:44;31.67;;;22.47;;
15831;SDS011;8016;49.928;9.372;2022-11-20T09:14:10;25.47;;;18.53;;
15831;SDS011;8016;49.928;9.372;2022-11-20T09:16:36;21.33;;;16.87;;
15831;SDS011;8016;49.928;9.372;2022-11-20T09:19:02;24.00;;;18.23;;
15831;SDS011;8016;49.928;9.372;2022-11-20T09:21:27;19.57;;;14.33;;
15831;SDS011;8016;49.928;9.372;2022-11-20T09:23:53;18.77;;;15.13;;
15831;SDS011;8016;49.928;9.372;2022-11-20T09:26:19;17.77;;;12.80;;
15831;SDS011;8016;49.928;9.372;2022-11-20T09:28:45;18.10;;;13.13;;
15831;SDS011;8016;49.928;9.372;2022-11-20T09:31:21;16.57;;;11.83;;
15831;SDS011;8016;49.928;9.372;2022-11-20T09:33:47;13.33;;;11.00;;
15831;SDS011;8016;49.928;9.372;2022-11-20T09:36:13;14.17;;;11.00;;
15831;SDS011;8016;49.928;9.372;2022-11-20T09:38:40;17.60;;;13.90;;
15831;SDS011;8016;49.928;9.372;2022-11-20T09:41:13;18.23;;;14.80;;
15831;SDS011;8016;49.928;9.372;2022-11-20T09:43:50;15.90;;;11.73;;
15831;SDS011;8016;49.928;9.372;2022-11-20T09:56:41;13.80;;;11.27;;
15831;SDS011;8016;49.928;9.372;2022-11-20T09:59:11;14.47;;;11.67;;
15831;SDS011;8016;49.928;9.372;2022-11-20T10:01:40;16.00;;;12.93;;
15831;SDS011;8016;49.928;9.372;2022-11-20T10:04:13;15.27;;;10.40;;
15831;SDS011;8016;49.928;9.372;2022-11-20T10:06:45;11.30;;;9.23;;
15831;SDS011;8016;49.928;9.372;2022-11-20T10:11:46;12.13;;;8.90;;
15831;SDS011;8016;49.928;9.372;2022-11-20T10:16:44;9.07;;;8.17;;
15831;SDS011;8016;49.928;9.372;2022-11-20T10:21:54;10.57;;;7.83;;
15831;SDS011;8016;49.928;9.372;2022-11-20T10:24:43;7.93;;;7.13;;
15831;SDS011;8016;49.928;9.372;2022-11-20T10:29:36;7.60;;;6.03;;
15831;SDS011;8016;49.928;9.372;2022-11-20T10:32:04;10.23;;;9.23;;
15831;SDS011;8016;49.928;9.372;2022-11-20T10:35:16;8.67;;;6.63;;
15831;SDS011;8016;49.928;9.372;2022-11-20T10:37:23;6.33;;;4.63;;
15831;SDS011;8016;49.928;9.372;2022-11-20T10:42:23;4.47;;;4.07;;
15831;SDS011;8016;49.928;9.372;2022-11-20T10:44:52;4.37;;;3.67;;
15831;SDS011;8016;49.928;9.372;2022-11-20T10:47:27;4.17;;;3.77;;
15831;SDS011;8016;49.928;9.372;2022-11-20T10:49:54;4.10;;;3.70;;
15831;SDS011;8016;49.928;9.372;2022-11-20T10:59:59;4.10;;;3.60;;
15831;SDS011;8016;49.928;9.372;2022-11-20T11:02:34;6.07;;;4.40;;
15831;SDS011;8016;49.928;9.372;2022-11-20T11:05:04;4.37;;;3.97;;
15831;SDS011;8016;49.928;9.372;2022-11-20T11:07:36;3.70;;;3.40;;
15831;SDS011;8016;49.928;9.372;2022-11-20T11:10:12;6.97;;;4.67;;
15831;SDS011;8016;49.928;9.372;2022-11-20T11:12:42;5.73;;;5.23;;
15831;SDS011;8016;49.928;9.372;2022-11-20T11:15:42;6.23;;;4.73;;
15831;SDS011;8016;49.928;9.372;2022-11-20T11:18:01;6.27;;;5.67;;
15831;SDS011;8016;49.928;9.372;2022-11-20T11:20:27;7.97;;;6.30;;
15831;SDS011;8016;49.928;9.372;2022-11-20T11:22:53;7.03;;;6.33;;
15831;SDS011;8016;49.928;9.372;2022-11-20T11:25:27;7.77;;;6.90;;
15831;SDS011;8016;49.928;9.372;2022-11-20T11:27:54;18.83;;;16.97;;
15831;SDS011;8016;49.928;9.372;2022-11-20T11:30:21;14.03;;;12.27;;
15831;SDS011;8016;49.928;9.372;2022-11-20T11:32:48;8.47;;;7.47;;
15831;SDS011;8016;49.928;9.372;2022-11-20T11:35:21;8.67;;;7.77;;
15831;SDS011;8016;49.928;9.372;2022-11-20T11:37:47;8.73;;;7.10;;
15831;SDS011;8016;49.928;9.372;2022-11-20T11:40:14;8.97;;;6.97;;
15831;SDS011;8016;49.928;9.372;2022-11-20T11:42:44;8.50;;;7.60;;
15831;SDS011;8016;49.928;9.372;2022-11-20T11:45:14;10.53;;;7.93;;
15831;SDS011;8016;49.928;9.372;2022-11-20T11:55:32;9.23;;;7.77;;
15831;SDS011;8016;49.928;9.372;2022-11-20T12:00:48;9.57;;;8.27;;
15831;SDS011;8016;49.928;9.372;2022-11-20T12:05:49;9.77;;;8.77;;
15831;SDS011;8016;49.928;9.372;2022-11-20T12:08:18;12.27;;;10.87;;
15831;SDS011;8016;49.928;9.372;2022-11-20T12:15:58;13.40;;;11.03;;
15831;SDS011;8016;49.928;9.372;2022-11-20T12:18:24;11.10;;;9.47;;
15831;SDS011;8016;49.928;9.372;2022-11-20T12:26:20;11.83;;;9.47;;
15831;SDS011;8016;49.928;9.372;2022-11-20T12:31:51;19.40;;;13.73;;
15831;SDS011;8016;49.928;9.372;2022-11-20T12:34:26;54.27;;;29.23;;
15831;SDS011;8016;49.928;9.372;2022-11-20T12:36:57;115.33;;;54.20;;
15831;SDS011;8016;49.928;9.372;2022-11-20T12:39:32;106.93;;;58.80;;
15831;SDS011;8016;49.928;9.372;2022-11-20T12:53:07;42.63;;;25.43;;
15831;SDS011;8016;49.928;9.372;2022-11-20T12:55:40;19.33;;;14.77;;
15831;SDS011;8016;49.928;9.372;2022-11-20T13:01:00;11.40;;;9.50;;
15831;SDS011;8016;49.928;9.372;2022-11-20T13:03:34;9.67;;;8.23;;
15831;SDS011;8016;49.928;9.372;2022-11-20T13:06:20;6.93;;;6.23;;
15831;SDS011;8016;49.928;9.372;2022-11-20T13:08:53;24.00;;;18.13;;
15831;SDS011;8016;49.928;9.372;2022-11-20T13:11:24;9.13;;;7.47;;
15831;SDS011;8016;49.928;9.372;2022-11-20T13:16:41;12.63;;;8.00;;
15831;SDS011;8016;49.928;9.372;2022-11-20T13:19:09;9.53;;;8.50;;
15831;SDS011;8016;49.928;9.372;2022-11-20T13:21:41;11.80;;;10.60;;
15831;SDS011;8016;49.928;9.372;2022-11-20T13:24:18;10.47;;;8.47;;
15831;SDS011;8016;49.928;9.372;2022-11-20T13:26:48;12.10;;;9.97;;
15831;SDS011;8016;49.928;9.372;2022-11-20T13:29:17;14.57;;;12.33;;
15831;SDS011;8016;49.928;9.372;2022-11-20T13:31:44;14.73;;;13.07;;
15831;SDS011;8016;49.928;9.372;2022-11-20T13:34:22;12.37;;;10.87;;
15831;SDS011;8016;49.928;9.372;2022-11-20T13:36:55;9.43;;;8.27;;
15831;SDS011;8016;49.928;9.372;2022-11-20T13:39:25;8.33;;;7.30;;
15831;SDS011;8016;49.928;9.372;2022-11-20T13:41:55;8.43;;;6.97;;
15831;SDS011;8016;49.928;9.372;2022-11-20T13:44:27;9.43;;;7.57;;
15831;SDS011;8016;49.928;9.372;2022-11-20T13:46:54;9.90;;;7.63;;
15831;SDS011;8016;49.928;9.372;2022-11-20T13:52:04;9.73;;;7.67;;
15831;SDS011;8016;49.928;9.372;2022-11-20T13:54:41;8.50;;;7.60;;
15831;SDS011;8016;49.928;9.372;2022-11-20T13:57:27;8.00;;;7.20;;
15831;SDS011;8016;49.928;9.372;2022-11-20T13:59:57;8.07;;;7.33;;
15831;SDS011;8016;49.928;9.372;2022-11-20T14:02:25;9.67;;;8.67;;
15831;SDS011;8016;49.928;9.372;2022-11-20T14:04:53;9.83;;;8.83;;
15831;SDS011;8016;49.928;9.372;2022-11-20T14:07:25;9.60;;;8.50;;
15831;SDS011;8016;49.928;9.372;2022-11-20T14:09:56;9.37;;;7.90;;
15831;SDS011;8016;49.928;9.372;2022-11-20T14:12:29;8.60;;;6.97;;
15831;SDS011;8016;49.928;9.372;2022-11-20T14:14:56;9.13;;;7.30;;
15831;SDS011;8016;49.928;9.372;2022-11-20T14:19:49;12.43;;;10.30;;
15831;SDS011;8016;49.928;9.372;2022-11-20T14:24:42;9.90;;;7.60;;
15831;SDS011;8016;49.928;9.372;2022-11-20T14:27:12;11.20;;;7.87;;
15831;SDS011;8016;49.928;9.372;2022-11-20T14:29:41;7.93;;;6.50;;
15831;SDS011;8016;49.928;9.372;2022-11-20T14:32:08;9.20;;;7.47;;
15831;SDS011;8016;49.928;9.372;2022-11-20T14:34:39;10.17;;;8.03;;
15831;SDS011;8016;49.928;9.372;2022-11-20T14:37:09;8.60;;;7.70;;
15831;SDS011;8016;49.928;9.372;2022-11-20T14:39:36;13.90;;;11.43;;
15831;SDS011;8016;49.928;9.372;2022-11-20T14:42:03;19.30;;;15.50;;
15831;SDS011;8016;49.928;9.372;2022-11-20T14:44:39;12.47;;;7.90;;
15831;SDS011;8016;49.928;9.372;2022-11-20T14:47:05;10.30;;;7.57;;
15831;SDS011;8016;49.928;9.372;2022-11-20T14:49:31;9.17;;;7.67;;
15831;SDS011;8016;49.928;9.372;2022-11-20T14:52:01;9.43;;;7.57;;
15831;SDS011;8016;49.928;9.372;2022-11-20T14:54:27;51.60;;;44.00;;
15831;SDS011;8016;49.928;9.372;2022-11-20T14:59:25;13.37;;;11.23;;
15831;SDS011;8016;49.928;9.372;2022-11-20T15:01:58;11.57;;;8.27;;
15831;SDS011;8016;49.928;9.372;2022-11-20T15:04:25;12.67;;;9.40;;
15831;SDS011;8016;49.928;9.372;2022-11-20T15:06:55;10.53;;;8.90;;
15831;SDS011;8016;49.928;9.372;2022-11-20T15:09:21;14.03;;;10.50;;
15831;SDS011;8016;49.928;9.372;2022-11-20T15:12:02;11.57;;;9.20;;
15831;SDS011;8016;49.928;9.372;2022-11-20T15:14:29;13.10;;;11.70;;
15831;SDS011;8016;49.928;9.372;2022-11-20T15:16:55;11.23;;;9.43;;
15831;SDS011;8016;49.928;9.372;2022-11-20T15:19:22;23.10;;;19.73;;
15831;SDS011;8016;49.928;9.372;2022-11-20T15:21:49;14.27;;;12.40;;
15831;SDS011;8016;49.928;9.372;2022-11-20T15:24:15;12.73;;;9.17;;
15831;SDS011;8016;49.928;9.372;2022-11-20T15:26:41;11.53;;;9.30;;
15831;SDS011;8016;49.928;9.372;2022-11-20T15:29:08;12.53;;;9.27;;
15831;SDS011;8016;49.928;9.372;2022-11-20T15:31:35;11.40;;;8.53;;
15831;SDS011;8016;49.928;9.372;2022-11-20T15:34:02;11.13;;;8.93;;
15831;SDS011;8016;49.928;9.372;2022-11-20T15:36:28;15.03;;;9.13;;
15831;SDS011;8016;49.928;9.372;2022-11-20T15:38:54;12.13;;;9.97;;
15831;SDS011;8016;49.928;9.372;2022-11-20T15:41:20;20.17;;;13.77;;
15831;SDS011;8016;49.928;9.372;2022-11-20T15:43:46;13.47;;;10.10;;
15831;SDS011;8016;49.928;9.372;2022-11-20T15:46:13;10.43;;;8.10;;
15831;SDS011;8016;49.928;9.372;2022-11-20T15:48:44;27.67;;;23.80;;
15831;SDS011;8016;49.928;9.372;2022-11-20T15:53:40;13.83;;;8.67;;
15831;SDS011;8016;49.928;9.372;2022-11-20T15:56:09;13.70;;;10.17;;
15831;SDS011;8016;49.928;9.372;2022-11-20T15:58:36;14.63;;;9.07;;
15831;SDS011;8016;49.928;9.372;2022-11-20T16:01:02;13.97;;;9.40;;
15831;SDS011;8016;49.928;9.372;2022-11-20T16:03:28;10.03;;;8.07;;
15831;SDS011;8016;49.928;9.372;2022-11-20T16:05:55;20.43;;;9.00;;
15831;SDS011;8016;49.928;9.372;2022-11-20T16:08:20;9.57;;;7.80;;
15831;SDS011;8016;49.928;9.372;2022-11-20T16:10:46;10.67;;;9.00;;
15831;SDS011;8016;49.928;9.372;2022-11-20T16:13:13;14.57;;;12.10;;
15831;SDS011;8016;49.928;9.372;2022-11-20T16:15:59;19.47;;;15.13;;